sensor_id;sensor_type;location;lat;lon;timestamp;P1;durP1;ratioP1;P2;durP2;ratioP2
10657;SDS011;5377;43.276;26.930;2022-07-04T00:01:00;4.60;;;2.65;;
10657;SDS011;5377;43.276;26.930;2022-07-04T00:03:27;5.47;;;3.00;;
10657;SDS011;5377;43.276;26.930;2022-07-04T00:05:54;3.65;;;1.50;;
10657;SDS011;5377;43.276;26.930;2022-07-04T00:08:21;3.17;;;2.17;;
10657;SDS011;5377;43.276;26.930;2022-07-04T00:10:48;2.78;;;2.00;;
10657;SDS011;5377;43.276;26.930;2022-07-04T00:13:15;5.40;;;2.05;;
10657;SDS011;5377;43.276;26.930;2022-07-04T00:15:42;5.55;;;2.63;;
10657;SDS011;5377;43.276;26.930;2022-07-04T00:18:11;3.75;;;2.10;;
10657;SDS011;5377;43.276;26.930;2022-07-04T00:20:38;4.28;;;2.50;;
10657;SDS011;5377;43.276;26.930;2022-07-04T00:23:05;3.28;;;2.30;;
10657;SDS011;5377;43.276;26.930;2022-07-04T00:25:32;2.67;;;2.13;;
10657;SDS011;5377;43.276;26.930;2022-07-04T00:27:59;2.05;;;1.95;;
10657;SDS011;5377;43.276;26.930;2022-07-04T00:30:26;3.58;;;2.05;;
10657;SDS011;5377;43.276;26.930;2022-07-04T00:32:53;5.45;;;2.13;;
10657;SDS011;5377;43.276;26.930;2022-07-04T00:35:21;5.35;;;1.98;;
10657;SDS011;5377;43.276;26.930;2022-07-04T00:37:48;2.08;;;1.92;;
10657;SDS011;5377;43.276;26.930;2022-07-04T00:40:16;2.17;;;1.98;;
10657;SDS011;5377;43.276;26.930;2022-07-04T00:42:43;4.88;;;2.17;;
10657;SDS011;5377;43.276;26.930;2022-07-04T00:45:10;3.53;;;1.67;;
10657;SDS011;5377;43.276;26.930;2022-07-04T00:47:37;3.55;;;2.08;;
10657;SDS011;5377;43.276;26.930;2022-07-04T00:50:04;4.70;;;2.13;;
10657;SDS011;5377;43.276;26.930;2022-07-04T00:52:33;5.05;;;1.80;;
10657;SDS011;5377;43.276;26.930;2022-07-04T00:55:00;5.68;;;1.98;;
10657;SDS011;5377;43.276;26.930;2022-07-04T00:57:27;4.05;;;2.22;;
10657;SDS011;5377;43.276;26.930;2022-07-04T00:59:54;2.20;;;1.98;;
10657;SDS011;5377;43.276;26.930;2022-07-04T01:02:21;3.33;;;2.03;;
10657;SDS011;5377;43.276;26.930;2022-07-04T01:04:48;2.33;;;2.08;;
10657;SDS011;5377;43.276;26.930;2022-07-04T01:07:15;7.57;;;2.00;;
10657;SDS011;5377;43.276;26.930;2022-07-04T01:09:44;1.50;;;1.40;;
10657;SDS011;5377;43.276;26.930;2022-07-04T01:12:23;3.35;;;1.98;;
10657;SDS011;5377;43.276;26.930;2022-07-04T01:14:51;1.80;;;1.70;;
10657;SDS011;5377;43.276;26.930;2022-07-04T01:17:18;3.28;;;2.28;;
10657;SDS011;5377;43.276;26.930;2022-07-04T01:19:45;5.07;;;1.70;;
10657;SDS011;5377;43.276;26.930;2022-07-04T01:22:14;2.22;;;1.95;;
10657;SDS011;5377;43.276;26.930;2022-07-04T01:24:43;4.15;;;1.50;;
10657;SDS011;5377;43.276;26.930;2022-07-04T01:27:10;3.03;;;2.20;;
10657;SDS011;5377;43.276;26.930;2022-07-04T01:29:38;4.32;;;1.63;;
10657;SDS011;5377;43.276;26.930;2022-07-04T01:32:05;1.60;;;1.50;;
10657;SDS011;5377;43.276;26.930;2022-07-04T01:34:33;2.00;;;1.80;;
10657;SDS011;5377;43.276;26.930;2022-07-04T01:37:00;4.63;;;1.08;;
10657;SDS011;5377;43.276;26.930;2022-07-04T01:39:30;2.53;;;1.02;;
10657;SDS011;5377;43.276;26.930;2022-07-04T01:41:57;1.25;;;1.15;;
10657;SDS011;5377;43.276;26.930;2022-07-04T01:44:24;2.53;;;1.63;;
10657;SDS011;5377;43.276;26.930;2022-07-04T01:46:51;2.50;;;1.20;;
10657;SDS011;5377;43.276;26.930;2022-07-04T01:49:18;2.25;;;1.63;;
10657;SDS011;5377;43.276;26.930;2022-07-04T01:51:45;4.93;;;1.17;;
10657;SDS011;5377;43.276;26.930;2022-07-04T01:54:12;1.33;;;1.25;;
10657;SDS011;5377;43.276;26.930;2022-07-04T01:56:41;2.40;;;1.33;;
10657;SDS011;5377;43.276;26.930;2022-07-04T01:59:08;3.13;;;0.90;;
10657;SDS011;5377;43.276;26.930;2022-07-04T02:01:36;8.77;;;1.60;;
10657;SDS011;5377;43.276;26.930;2022-07-04T02:04:03;4.53;;;1.73;;
10657;SDS011;5377;43.276;26.930;2022-07-04T02:06:32;3.00;;;1.42;;
10657;SDS011;5377;43.276;26.930;2022-07-04T02:08:59;1.60;;;1.10;;
10657;SDS011;5377;43.276;26.930;2022-07-04T02:11:43;4.22;;;2.05;;
10657;SDS011;5377;43.276;26.930;2022-07-04T02:14:28;3.20;;;1.70;;
10657;SDS011;5377;43.276;26.930;2022-07-04T02:16:56;1.40;;;1.30;;
10657;SDS011;5377;43.276;26.930;2022-07-04T02:19:23;4.85;;;1.35;;
10657;SDS011;5377;43.276;26.930;2022-07-04T02:21:50;1.77;;;1.67;;
10657;SDS011;5377;43.276;26.930;2022-07-04T02:24:17;2.70;;;1.98;;
10657;SDS011;5377;43.276;26.930;2022-07-04T02:26:46;2.88;;;1.70;;
10657;SDS011;5377;43.276;26.930;2022-07-04T02:29:15;6.80;;;2.15;;
10657;SDS011;5377;43.276;26.930;2022-07-04T02:31:42;4.18;;;1.77;;
10657;SDS011;5377;43.276;26.930;2022-07-04T02:34:09;5.82;;;2.60;;
10657;SDS011;5377;43.276;26.930;2022-07-04T02:36:36;6.50;;;2.10;;
10657;SDS011;5377;43.276;26.930;2022-07-04T02:39:04;8.52;;;1.95;;
10657;SDS011;5377;43.276;26.930;2022-07-04T02:41:31;5.85;;;2.00;;
10657;SDS011;5377;43.276;26.930;2022-07-04T02:44:00;6.10;;;1.70;;
10657;SDS011;5377;43.276;26.930;2022-07-04T02:46:27;4.93;;;1.77;;
10657;SDS011;5377;43.276;26.930;2022-07-04T02:48:54;4.80;;;1.88;;
10657;SDS011;5377;43.276;26.930;2022-07-04T02:51:21;5.53;;;1.10;;
10657;SDS011;5377;43.276;26.930;2022-07-04T02:53:48;1.33;;;0.90;;
10657;SDS011;5377;43.276;26.930;2022-07-04T02:56:15;4.15;;;2.40;;
10657;SDS011;5377;43.276;26.930;2022-07-04T02:58:45;7.18;;;4.15;;
10657;SDS011;5377;43.276;26.930;2022-07-04T03:01:13;18.35;;;13.02;;
10657;SDS011;5377;43.276;26.930;2022-07-04T03:03:41;15.95;;;11.00;;
10657;SDS011;5377;43.276;26.930;2022-07-04T03:06:08;14.40;;;10.90;;
10657;SDS011;5377;43.276;26.930;2022-07-04T03:08:35;7.85;;;4.03;;
10657;SDS011;5377;43.276;26.930;2022-07-04T03:11:03;12.98;;;5.43;;
10657;SDS011;5377;43.276;26.930;2022-07-04T03:13:31;6.95;;;4.75;;
10657;SDS011;5377;43.276;26.930;2022-07-04T03:15:58;9.98;;;4.35;;
10657;SDS011;5377;43.276;26.930;2022-07-04T03:18:26;8.18;;;3.70;;
10657;SDS011;5377;43.276;26.930;2022-07-04T03:20:53;8.77;;;6.03;;
10657;SDS011;5377;43.276;26.930;2022-07-04T03:23:21;25.20;;;17.85;;
10657;SDS011;5377;43.276;26.930;2022-07-04T03:25:48;40.42;;;29.50;;
10657;SDS011;5377;43.276;26.930;2022-07-04T03:28:15;13.23;;;7.18;;
10657;SDS011;5377;43.276;26.930;2022-07-04T03:30:42;11.65;;;5.82;;
10657;SDS011;5377;43.276;26.930;2022-07-04T03:33:09;8.30;;;6.07;;
10657;SDS011;5377;43.276;26.930;2022-07-04T03:35:38;5.68;;;4.35;;
10657;SDS011;5377;43.276;26.930;2022-07-04T03:38:05;12.05;;;8.32;;
10657;SDS011;5377;43.276;26.930;2022-07-04T03:40:32;11.95;;;6.00;;
10657;SDS011;5377;43.276;26.930;2022-07-04T03:43:01;8.25;;;4.20;;
10657;SDS011;5377;43.276;26.930;2022-07-04T03:45:28;11.98;;;5.75;;
10657;SDS011;5377;43.276;26.930;2022-07-04T04:01:41;8.43;;;4.68;;
10657;SDS011;5377;43.276;26.930;2022-07-04T04:04:09;7.38;;;4.22;;
10657;SDS011;5377;43.276;26.930;2022-07-04T04:06:55;4.22;;;3.60;;
10657;SDS011;5377;43.276;26.930;2022-07-04T04:09:22;6.13;;;4.13;;
10657;SDS011;5377;43.276;26.930;2022-07-04T04:11:49;3.85;;;3.40;;
10657;SDS011;5377;43.276;26.930;2022-07-04T04:14:17;9.77;;;4.55;;
10657;SDS011;5377;43.276;26.930;2022-07-04T04:16:45;13.65;;;6.15;;
10657;SDS011;5377;43.276;26.930;2022-07-04T04:19:12;8.10;;;4.75;;
10657;SDS011;5377;43.276;26.930;2022-07-04T04:21:39;11.30;;;5.88;;
10657;SDS011;5377;43.276;26.930;2022-07-04T04:24:06;5.00;;;3.83;;
10657;SDS011;5377;43.276;26.930;2022-07-04T04:26:34;8.90;;;4.65;;
10657;SDS011;5377;43.276;26.930;2022-07-04T04:29:01;9.43;;;5.35;;
10657;SDS011;5377;43.276;26.930;2022-07-04T04:31:28;7.78;;;6.30;;
10657;SDS011;5377;43.276;26.930;2022-07-04T04:33:57;5.75;;;4.28;;
10657;SDS011;5377;43.276;26.930;2022-07-04T04:36:25;8.73;;;4.65;;
10657;SDS011;5377;43.276;26.930;2022-07-04T04:38:52;7.82;;;4.47;;
10657;SDS011;5377;43.276;26.930;2022-07-04T04:41:19;4.68;;;3.15;;
10657;SDS011;5377;43.276;26.930;2022-07-04T04:43:46;5.22;;;3.10;;
10657;SDS011;5377;43.276;26.930;2022-07-04T04:46:13;3.35;;;3.05;;
10657;SDS011;5377;43.276;26.930;2022-07-04T04:48:42;9.30;;;4.50;;
10657;SDS011;5377;43.276;26.930;2022-07-04T04:51:10;9.02;;;4.43;;
10657;SDS011;5377;43.276;26.930;2022-07-04T04:53:37;9.85;;;4.20;;
10657;SDS011;5377;43.276;26.930;2022-07-04T04:56:04;5.00;;;3.83;;
10657;SDS011;5377;43.276;26.930;2022-07-04T04:58:31;6.07;;;3.58;;
10657;SDS011;5377;43.276;26.930;2022-07-04T05:00:58;7.53;;;3.72;;
10657;SDS011;5377;43.276;26.930;2022-07-04T05:03:27;7.25;;;4.10;;
10657;SDS011;5377;43.276;26.930;2022-07-04T05:05:54;10.38;;;4.28;;
10657;SDS011;5377;43.276;26.930;2022-07-04T05:08:23;8.70;;;4.43;;
10657;SDS011;5377;43.276;26.930;2022-07-04T05:10:51;7.20;;;4.00;;
10657;SDS011;5377;43.276;26.930;2022-07-04T05:13:19;7.75;;;4.13;;
10657;SDS011;5377;43.276;26.930;2022-07-04T05:15:46;4.75;;;2.95;;
10657;SDS011;5377;43.276;26.930;2022-07-04T05:18:14;6.63;;;4.07;;
10657;SDS011;5377;43.276;26.930;2022-07-04T05:20:41;8.27;;;4.03;;
10657;SDS011;5377;43.276;26.930;2022-07-04T05:23:11;11.90;;;5.85;;
10657;SDS011;5377;43.276;26.930;2022-07-04T05:25:40;7.57;;;4.78;;
10657;SDS011;5377;43.276;26.930;2022-07-04T05:28:07;6.88;;;3.92;;
10657;SDS011;5377;43.276;26.930;2022-07-04T05:30:34;6.90;;;4.85;;
10657;SDS011;5377;43.276;26.930;2022-07-04T05:33:01;9.95;;;4.50;;
10657;SDS011;5377;43.276;26.930;2022-07-04T05:35:29;9.98;;;5.03;;
10657;SDS011;5377;43.276;26.930;2022-07-04T05:37:56;7.57;;;4.55;;
10657;SDS011;5377;43.276;26.930;2022-07-04T05:40:23;9.45;;;4.95;;
10657;SDS011;5377;43.276;26.930;2022-07-04T05:42:52;7.70;;;4.38;;
10657;SDS011;5377;43.276;26.930;2022-07-04T05:45:19;12.32;;;4.30;;
10657;SDS011;5377;43.276;26.930;2022-07-04T05:47:46;8.10;;;4.35;;
10657;SDS011;5377;43.276;26.930;2022-07-04T05:50:13;11.88;;;4.72;;
10657;SDS011;5377;43.276;26.930;2022-07-04T05:52:40;9.32;;;4.70;;
10657;SDS011;5377;43.276;26.930;2022-07-04T05:55:08;8.05;;;4.70;;
10657;SDS011;5377;43.276;26.930;2022-07-04T05:57:42;9.93;;;5.45;;
10657;SDS011;5377;43.276;26.930;2022-07-04T06:00:11;9.55;;;5.43;;
10657;SDS011;5377;43.276;26.930;2022-07-04T06:02:38;6.57;;;5.32;;
10657;SDS011;5377;43.276;26.930;2022-07-04T06:05:07;7.85;;;5.47;;
10657;SDS011;5377;43.276;26.930;2022-07-04T06:07:34;9.57;;;4.80;;
10657;SDS011;5377;43.276;26.930;2022-07-04T06:10:02;8.82;;;4.85;;
10657;SDS011;5377;43.276;26.930;2022-07-04T06:12:30;4.60;;;3.40;;
10657;SDS011;5377;43.276;26.930;2022-07-04T06:14:58;4.78;;;2.97;;
10657;SDS011;5377;43.276;26.930;2022-07-04T06:17:26;3.90;;;2.92;;
10657;SDS011;5377;43.276;26.930;2022-07-04T06:19:54;4.15;;;2.35;;
10657;SDS011;5377;43.276;26.930;2022-07-04T06:22:21;3.47;;;2.67;;
10657;SDS011;5377;43.276;26.930;2022-07-04T06:24:48;3.25;;;1.95;;
10657;SDS011;5377;43.276;26.930;2022-07-04T06:27:15;5.80;;;1.73;;
10657;SDS011;5377;43.276;26.930;2022-07-04T06:29:42;3.70;;;1.98;;
10657;SDS011;5377;43.276;26.930;2022-07-04T06:32:09;2.00;;;1.58;;
10657;SDS011;5377;43.276;26.930;2022-07-04T06:34:38;3.13;;;1.65;;
10657;SDS011;5377;43.276;26.930;2022-07-04T06:37:22;1.80;;;1.70;;
10657;SDS011;5377;43.276;26.930;2022-07-04T06:39:49;2.92;;;1.42;;
10657;SDS011;5377;43.276;26.930;2022-07-04T06:42:16;3.60;;;2.42;;
10657;SDS011;5377;43.276;26.930;2022-07-04T06:44:43;7.97;;;7.05;;
10657;SDS011;5377;43.276;26.930;2022-07-04T06:47:10;5.55;;;3.15;;
10657;SDS011;5377;43.276;26.930;2022-07-04T06:49:39;5.15;;;3.63;;
10657;SDS011;5377;43.276;26.930;2022-07-04T06:52:05;2.53;;;1.80;;
10657;SDS011;5377;43.276;26.930;2022-07-04T06:54:32;6.03;;;2.13;;
10657;SDS011;5377;43.276;26.930;2022-07-04T06:56:59;4.90;;;1.92;;
10657;SDS011;5377;43.276;26.930;2022-07-04T06:59:26;2.75;;;1.73;;
10657;SDS011;5377;43.276;26.930;2022-07-04T07:01:53;4.30;;;1.98;;
10657;SDS011;5377;43.276;26.930;2022-07-04T07:04:20;2.75;;;2.47;;
10657;SDS011;5377;43.276;26.930;2022-07-04T07:06:49;3.50;;;1.60;;
10657;SDS011;5377;43.276;26.930;2022-07-04T07:09:16;4.53;;;2.22;;
10657;SDS011;5377;43.276;26.930;2022-07-04T07:11:43;3.75;;;1.30;;
10657;SDS011;5377;43.276;26.930;2022-07-04T07:14:11;2.22;;;1.25;;
10657;SDS011;5377;43.276;26.930;2022-07-04T07:16:38;1.42;;;1.05;;
10657;SDS011;5377;43.276;26.930;2022-07-04T07:19:05;2.40;;;1.40;;
10657;SDS011;5377;43.276;26.930;2022-07-04T07:21:32;1.83;;;1.50;;
10657;SDS011;5377;43.276;26.930;2022-07-04T07:24:01;3.28;;;1.90;;
10657;SDS011;5377;43.276;26.930;2022-07-04T07:26:29;4.80;;;1.55;;
10657;SDS011;5377;43.276;26.930;2022-07-04T07:28:56;3.38;;;0.90;;
10657;SDS011;5377;43.276;26.930;2022-07-04T07:31:23;3.90;;;1.17;;
10657;SDS011;5377;43.276;26.930;2022-07-04T07:33:50;1.48;;;1.35;;
10657;SDS011;5377;43.276;26.930;2022-07-04T07:36:17;1.05;;;1.05;;
10657;SDS011;5377;43.276;26.930;2022-07-04T07:38:44;1.38;;;1.00;;
10657;SDS011;5377;43.276;26.930;2022-07-04T07:41:13;3.85;;;1.85;;
10657;SDS011;5377;43.276;26.930;2022-07-04T07:43:40;4.57;;;1.30;;
10657;SDS011;5377;43.276;26.930;2022-07-04T07:46:08;0.93;;;0.90;;
10657;SDS011;5377;43.276;26.930;2022-07-04T07:48:37;3.22;;;2.92;;
10657;SDS011;5377;43.276;26.930;2022-07-04T07:51:04;2.70;;;2.05;;
10657;SDS011;5377;43.276;26.930;2022-07-04T07:53:31;2.65;;;2.13;;
10657;SDS011;5377;43.276;26.930;2022-07-04T07:55:58;2.15;;;1.20;;
10657;SDS011;5377;43.276;26.930;2022-07-04T07:58:26;5.30;;;3.45;;
10657;SDS011;5377;43.276;26.930;2022-07-04T08:00:53;4.65;;;3.00;;
10657;SDS011;5377;43.276;26.930;2022-07-04T08:03:20;2.72;;;1.02;;
10657;SDS011;5377;43.276;26.930;2022-07-04T08:06:05;3.25;;;1.77;;
10657;SDS011;5377;43.276;26.930;2022-07-04T08:08:32;1.40;;;1.02;;
10657;SDS011;5377;43.276;26.930;2022-07-04T08:11:00;2.78;;;1.20;;
10657;SDS011;5377;43.276;26.930;2022-07-04T08:13:30;2.72;;;1.25;;
10657;SDS011;5377;43.276;26.930;2022-07-04T08:15:57;1.15;;;1.10;;
10657;SDS011;5377;43.276;26.930;2022-07-04T08:18:29;2.78;;;0.80;;
10657;SDS011;5377;43.276;26.930;2022-07-04T08:20:57;2.72;;;0.95;;
10657;SDS011;5377;43.276;26.930;2022-07-04T08:23:24;2.80;;;1.40;;
10657;SDS011;5377;43.276;26.930;2022-07-04T08:25:54;6.50;;;1.10;;
10657;SDS011;5377;43.276;26.930;2022-07-04T08:28:21;4.05;;;2.60;;
10657;SDS011;5377;43.276;26.930;2022-07-04T08:30:50;8.13;;;5.35;;
10657;SDS011;5377;43.276;26.930;2022-07-04T08:33:17;4.60;;;1.33;;
10657;SDS011;5377;43.276;26.930;2022-07-04T08:35:44;4.82;;;3.55;;
10657;SDS011;5377;43.276;26.930;2022-07-04T08:38:13;2.80;;;0.90;;
10657;SDS011;5377;43.276;26.930;2022-07-04T08:40:42;1.77;;;1.30;;
10657;SDS011;5377;43.276;26.930;2022-07-04T08:43:09;8.10;;;2.40;;
10657;SDS011;5377;43.276;26.930;2022-07-04T08:45:42;2.83;;;2.42;;
10657;SDS011;5377;43.276;26.930;2022-07-04T08:48:15;3.65;;;1.48;;
10657;SDS011;5377;43.276;26.930;2022-07-04T08:50:46;2.35;;;1.20;;
10657;SDS011;5377;43.276;26.930;2022-07-04T08:53:18;6.05;;;1.52;;
10657;SDS011;5377;43.276;26.930;2022-07-04T08:55:46;3.35;;;1.20;;
10657;SDS011;5377;43.276;26.930;2022-07-04T08:58:31;2.20;;;1.88;;
10657;SDS011;5377;43.276;26.930;2022-07-04T09:01:01;2.83;;;0.90;;
10657;SDS011;5377;43.276;26.930;2022-07-04T09:03:31;6.03;;;1.60;;
10657;SDS011;5377;43.276;26.930;2022-07-04T09:06:01;2.55;;;0.90;;
10657;SDS011;5377;43.276;26.930;2022-07-04T09:08:30;1.35;;;0.88;;
10657;SDS011;5377;43.276;26.930;2022-07-04T09:10:57;1.55;;;1.02;;
10657;SDS011;5377;43.276;26.930;2022-07-04T09:13:25;2.15;;;1.00;;
10657;SDS011;5377;43.276;26.930;2022-07-04T09:15:52;2.03;;;0.70;;
10657;SDS011;5377;43.276;26.930;2022-07-04T09:18:23;2.50;;;1.00;;
10657;SDS011;5377;43.276;26.930;2022-07-04T09:20:53;1.42;;;1.00;;
10657;SDS011;5377;43.276;26.930;2022-07-04T09:23:24;0.98;;;0.70;;
10657;SDS011;5377;43.276;26.930;2022-07-04T09:26:06;1.15;;;1.10;;
10657;SDS011;5377;43.276;26.930;2022-07-04T09:28:43;2.58;;;1.23;;
10657;SDS011;5377;43.276;26.930;2022-07-04T09:31:15;5.40;;;1.35;;
10657;SDS011;5377;43.276;26.930;2022-07-04T09:33:45;0.60;;;0.50;;
10657;SDS011;5377;43.276;26.930;2022-07-04T09:36:16;2.28;;;0.93;;
10657;SDS011;5377;43.276;26.930;2022-07-04T09:38:45;2.70;;;1.13;;
10657;SDS011;5377;43.276;26.930;2022-07-04T09:41:30;1.60;;;1.00;;
10657;SDS011;5377;43.276;26.930;2022-07-04T09:44:02;1.67;;;0.80;;
10657;SDS011;5377;43.276;26.930;2022-07-04T09:46:31;1.88;;;1.08;;
10657;SDS011;5377;43.276;26.930;2022-07-04T09:49:02;1.33;;;0.80;;
10657;SDS011;5377;43.276;26.930;2022-07-04T09:51:50;0.80;;;0.80;;
10657;SDS011;5377;43.276;26.930;2022-07-04T09:54:20;2.05;;;0.80;;
10657;SDS011;5377;43.276;26.930;2022-07-04T09:57:04;1.88;;;0.63;;
10657;SDS011;5377;43.276;26.930;2022-07-04T09:59:33;4.13;;;0.80;;
10657;SDS011;5377;43.276;26.930;2022-07-04T10:02:07;2.83;;;0.77;;
10657;SDS011;5377;43.276;26.930;2022-07-04T10:04:43;0.63;;;0.60;;
10657;SDS011;5377;43.276;26.930;2022-07-04T10:07:29;1.50;;;0.70;;
10657;SDS011;5377;43.276;26.930;2022-07-04T10:09:57;2.90;;;0.88;;
10657;SDS011;5377;43.276;26.930;2022-07-04T10:12:25;5.85;;;1.13;;
10657;SDS011;5377;43.276;26.930;2022-07-04T10:14:53;1.52;;;1.20;;
10657;SDS011;5377;43.276;26.930;2022-07-04T10:17:22;3.47;;;0.70;;
10657;SDS011;5377;43.276;26.930;2022-07-04T10:19:49;4.63;;;0.95;;
10657;SDS011;5377;43.276;26.930;2022-07-04T10:22:20;2.45;;;0.90;;
10657;SDS011;5377;43.276;26.930;2022-07-04T10:24:49;3.35;;;1.10;;
10657;SDS011;5377;43.276;26.930;2022-07-04T10:27:16;3.08;;;1.60;;
10657;SDS011;5377;43.276;26.930;2022-07-04T10:29:43;2.60;;;1.42;;
10657;SDS011;5377;43.276;26.930;2022-07-04T10:32:11;2.67;;;1.38;;
10657;SDS011;5377;43.276;26.930;2022-07-04T10:34:39;3.95;;;0.80;;
10657;SDS011;5377;43.276;26.930;2022-07-04T10:37:07;1.90;;;0.60;;
10657;SDS011;5377;43.276;26.930;2022-07-04T10:39:35;1.08;;;0.70;;
10657;SDS011;5377;43.276;26.930;2022-07-04T10:42:03;3.75;;;1.00;;
10657;SDS011;5377;43.276;26.930;2022-07-04T10:44:31;1.83;;;1.17;;
10657;SDS011;5377;43.276;26.930;2022-07-04T10:47:03;1.13;;;0.75;;
10657;SDS011;5377;43.276;26.930;2022-07-04T10:49:30;1.05;;;0.75;;
10657;SDS011;5377;43.276;26.930;2022-07-04T10:52:08;0.77;;;0.70;;
10657;SDS011;5377;43.276;26.930;2022-07-04T10:54:38;2.50;;;1.08;;
10657;SDS011;5377;43.276;26.930;2022-07-04T10:57:10;3.65;;;1.90;;
10657;SDS011;5377;43.276;26.930;2022-07-04T10:59:41;3.53;;;1.80;;
10657;SDS011;5377;43.276;26.930;2022-07-04T11:02:29;2.88;;;1.52;;
10657;SDS011;5377;43.276;26.930;2022-07-04T11:04:59;3.47;;;1.20;;
10657;SDS011;5377;43.276;26.930;2022-07-04T11:10:32;5.35;;;1.23;;
10657;SDS011;5377;43.276;26.930;2022-07-04T11:13:07;3.45;;;0.98;;
10657;SDS011;5377;43.276;26.930;2022-07-04T11:16:04;1.67;;;0.70;;
10657;SDS011;5377;43.276;26.930;2022-07-04T11:18:42;0.60;;;0.60;;
10657;SDS011;5377;43.276;26.930;2022-07-04T11:21:20;2.30;;;0.60;;
10657;SDS011;5377;43.276;26.930;2022-07-04T11:23:52;2.05;;;0.98;;
10657;SDS011;5377;43.276;26.930;2022-07-04T11:26:24;3.75;;;0.90;;
10657;SDS011;5377;43.276;26.930;2022-07-04T11:28:55;1.40;;;0.52;;
10657;SDS011;5377;43.276;26.930;2022-07-04T11:31:35;1.63;;;0.63;;
10657;SDS011;5377;43.276;26.930;2022-07-04T11:34:06;2.00;;;0.55;;
10657;SDS011;5377;43.276;26.930;2022-07-04T11:36:34;2.83;;;0.50;;
10657;SDS011;5377;43.276;26.930;2022-07-04T11:39:13;2.63;;;1.00;;
10657;SDS011;5377;43.276;26.930;2022-07-04T11:41:46;2.03;;;0.75;;
10657;SDS011;5377;43.276;26.930;2022-07-04T11:44:35;1.25;;;0.82;;
10657;SDS011;5377;43.276;26.930;2022-07-04T11:47:21;1.38;;;0.50;;
10657;SDS011;5377;43.276;26.930;2022-07-04T11:49:49;2.05;;;0.68;;
10657;SDS011;5377;43.276;26.930;2022-07-04T11:52:18;1.27;;;0.60;;
10657;SDS011;5377;43.276;26.930;2022-07-04T11:54:48;1.15;;;0.98;;
10657;SDS011;5377;43.276;26.930;2022-07-04T11:57:18;1.80;;;0.90;;
10657;SDS011;5377;43.276;26.930;2022-07-04T11:59:52;2.55;;;0.85;;
10657;SDS011;5377;43.276;26.930;2022-07-04T12:02:24;1.73;;;0.70;;
10657;SDS011;5377;43.276;26.930;2022-07-04T12:04:52;1.77;;;0.80;;
10657;SDS011;5377;43.276;26.930;2022-07-04T12:07:20;1.27;;;0.80;;
10657;SDS011;5377;43.276;26.930;2022-07-04T12:09:48;2.72;;;1.80;;
10657;SDS011;5377;43.276;26.930;2022-07-04T12:12:15;0.60;;;0.50;;
10657;SDS011;5377;43.276;26.930;2022-07-04T12:14:57;2.80;;;0.70;;
10657;SDS011;5377;43.276;26.930;2022-07-04T12:17:36;3.20;;;0.80;;
10657;SDS011;5377;43.276;26.930;2022-07-04T12:20:10;3.65;;;0.70;;
10657;SDS011;5377;43.276;26.930;2022-07-04T12:22:43;2.28;;;0.60;;
10657;SDS011;5377;43.276;26.930;2022-07-04T12:25:20;2.25;;;0.50;;
10657;SDS011;5377;43.276;26.930;2022-07-04T12:27:54;2.55;;;0.50;;
10657;SDS011;5377;43.276;26.930;2022-07-04T12:30:23;2.70;;;0.70;;
10657;SDS011;5377;43.276;26.930;2022-07-04T12:32:51;3.17;;;0.70;;
10657;SDS011;5377;43.276;26.930;2022-07-04T12:35:32;4.10;;;0.80;;
10657;SDS011;5377;43.276;26.930;2022-07-04T12:38:04;1.02;;;0.70;;
10657;SDS011;5377;43.276;26.930;2022-07-04T12:40:33;1.95;;;0.90;;
10657;SDS011;5377;43.276;26.930;2022-07-04T12:43:02;2.10;;;0.80;;
10657;SDS011;5377;43.276;26.930;2022-07-04T12:45:43;2.88;;;0.70;;
10657;SDS011;5377;43.276;26.930;2022-07-04T12:48:15;4.10;;;3.75;;
10657;SDS011;5377;43.276;26.930;2022-07-04T12:50:44;7.57;;;3.75;;
10657;SDS011;5377;43.276;26.930;2022-07-04T12:53:12;1.73;;;0.90;;
10657;SDS011;5377;43.276;26.930;2022-07-04T12:55:40;3.30;;;1.95;;
10657;SDS011;5377;43.276;26.930;2022-07-04T12:58:09;4.85;;;2.45;;
10657;SDS011;5377;43.276;26.930;2022-07-04T13:00:36;2.33;;;1.33;;
10657;SDS011;5377;43.276;26.930;2022-07-04T13:03:04;2.38;;;0.70;;
10657;SDS011;5377;43.276;26.930;2022-07-04T13:05:33;2.75;;;1.00;;
10657;SDS011;5377;43.276;26.930;2022-07-04T13:08:00;2.15;;;1.02;;
10657;SDS011;5377;43.276;26.930;2022-07-04T13:10:28;1.23;;;0.70;;
10657;SDS011;5377;43.276;26.930;2022-07-04T13:12:55;0.95;;;0.60;;
10657;SDS011;5377;43.276;26.930;2022-07-04T13:15:24;1.90;;;0.57;;
10657;SDS011;5377;43.276;26.930;2022-07-04T13:17:51;1.30;;;0.70;;
10657;SDS011;5377;43.276;26.930;2022-07-04T13:20:18;3.70;;;0.68;;
10657;SDS011;5377;43.276;26.930;2022-07-04T13:22:45;2.83;;;0.55;;
10657;SDS011;5377;43.276;26.930;2022-07-04T13:25:14;1.70;;;0.65;;
10657;SDS011;5377;43.276;26.930;2022-07-04T13:27:41;0.75;;;0.60;;
10657;SDS011;5377;43.276;26.930;2022-07-04T13:30:09;1.17;;;0.80;;
10657;SDS011;5377;43.276;26.930;2022-07-04T13:32:38;0.90;;;0.60;;
10657;SDS011;5377;43.276;26.930;2022-07-04T13:35:06;1.60;;;0.60;;
10657;SDS011;5377;43.276;26.930;2022-07-04T13:37:33;1.70;;;0.75;;
10657;SDS011;5377;43.276;26.930;2022-07-04T13:40:00;1.85;;;0.70;;
10657;SDS011;5377;43.276;26.930;2022-07-04T13:42:27;4.22;;;0.63;;
10657;SDS011;5377;43.276;26.930;2022-07-04T13:45:14;1.10;;;0.80;;
10657;SDS011;5377;43.276;26.930;2022-07-04T13:47:42;1.33;;;0.63;;
10657;SDS011;5377;43.276;26.930;2022-07-04T13:50:09;0.82;;;0.77;;
10657;SDS011;5377;43.276;26.930;2022-07-04T13:52:36;2.25;;;1.60;;
10657;SDS011;5377;43.276;26.930;2022-07-04T13:55:04;1.30;;;0.60;;
10657;SDS011;5377;43.276;26.930;2022-07-04T13:57:31;1.85;;;0.55;;
10657;SDS011;5377;43.276;26.930;2022-07-04T13:59:59;0.60;;;0.60;;
10657;SDS011;5377;43.276;26.930;2022-07-04T14:02:26;0.68;;;0.55;;
10657;SDS011;5377;43.276;26.930;2022-07-04T14:04:55;1.60;;;0.70;;
10657;SDS011;5377;43.276;26.930;2022-07-04T14:07:23;0.70;;;0.70;;
10657;SDS011;5377;43.276;26.930;2022-07-04T14:09:50;0.73;;;0.73;;
10657;SDS011;5377;43.276;26.930;2022-07-04T14:12:17;0.80;;;0.80;;
10657;SDS011;5377;43.276;26.930;2022-07-04T14:14:45;2.00;;;1.67;;
10657;SDS011;5377;43.276;26.930;2022-07-04T14:17:12;1.48;;;0.52;;
10657;SDS011;5377;43.276;26.930;2022-07-04T14:19:39;0.88;;;0.88;;
10657;SDS011;5377;43.276;26.930;2022-07-04T14:22:08;1.65;;;0.60;;
10657;SDS011;5377;43.276;26.930;2022-07-04T14:24:35;1.80;;;0.77;;
10657;SDS011;5377;43.276;26.930;2022-07-04T14:27:02;2.42;;;0.68;;
10657;SDS011;5377;43.276;26.930;2022-07-04T14:29:29;2.58;;;0.80;;
10657;SDS011;5377;43.276;26.930;2022-07-04T14:31:59;2.35;;;0.63;;
10657;SDS011;5377;43.276;26.930;2022-07-04T14:34:26;3.63;;;1.90;;
10657;SDS011;5377;43.276;26.930;2022-07-04T14:36:54;2.58;;;0.70;;
10657;SDS011;5377;43.276;26.930;2022-07-04T14:39:22;1.35;;;0.80;;
10657;SDS011;5377;43.276;26.930;2022-07-04T14:41:49;2.85;;;1.25;;
10657;SDS011;5377;43.276;26.930;2022-07-04T14:44:18;3.17;;;1.00;;
10657;SDS011;5377;43.276;26.930;2022-07-04T14:46:45;2.38;;;1.00;;
10657;SDS011;5377;43.276;26.930;2022-07-04T14:49:12;1.30;;;1.00;;
10657;SDS011;5377;43.276;26.930;2022-07-04T14:51:39;3.95;;;1.20;;
10657;SDS011;5377;43.276;26.930;2022-07-04T14:54:06;4.72;;;1.10;;
10657;SDS011;5377;43.276;26.930;2022-07-04T14:56:34;0.80;;;0.80;;
10657;SDS011;5377;43.276;26.930;2022-07-04T14:59:02;5.07;;;0.98;;
10657;SDS011;5377;43.276;26.930;2022-07-04T15:01:29;1.13;;;0.88;;
10657;SDS011;5377;43.276;26.930;2022-07-04T15:03:57;1.27;;;1.20;;
10657;SDS011;5377;43.276;26.930;2022-07-04T15:06:24;4.07;;;0.82;;
10657;SDS011;5377;43.276;26.930;2022-07-04T15:08:51;4.10;;;1.33;;
10657;SDS011;5377;43.276;26.930;2022-07-04T15:11:19;4.20;;;1.35;;
10657;SDS011;5377;43.276;26.930;2022-07-04T15:13:48;3.45;;;1.38;;
10657;SDS011;5377;43.276;26.930;2022-07-04T15:16:16;3.05;;;0.90;;